EST,Max TemperatureF,Mean TemperatureF,Min TemperatureF,Max Dew PointF,MeanDew PointF,Min DewpointF,Max Humidity, Mean Humidity, Min Humidity, Max Sea Level PressureIn, Mean Sea Level PressureIn, Min Sea Level PressureIn, Max VisibilityMiles, Mean VisibilityMiles, Min VisibilityMiles, Max Wind SpeedMPH, Mean Wind SpeedMPH, Max Gust SpeedMPH,PrecipitationIn, CloudCover, Events, WindDirDegrees
2013-1-1,41,34,28,29,23,9,65,55,45,29.97,29.86,29.80,,,,17,14,30,0.00,,,286
2013-1-2,30,27,24,16,13,11,60,53,47,30.13,30.04,29.98,,,,18,13,30,0.00,,,300
2013-1-3,30,24,19,19,9,0,63,50,42,30.19,30.13,30.08,,,,21,13,30,0.00,,,293
2013-1-4,37,34,32,25,23,21,70,61,51,30.05,29.99,29.91,,,,15,11,25,0.00,,,251
2013-1-5,43,36,28,26,24,22,82,60,45,30.28,30.16,29.98,,,,14,10,26,0.00,,,267
2013-1-6,43,38,32,36,31,27,86,78,67,30.21,30.07,29.98,,,,9,4,16,0.01,,,241
2013-1-7,44,34,25,31,26,20,88,66,47,30.41,30.28,30.05,,,,12,8,22,0.00,,,300
2013-1-8,46,41,36,37,33,30,86,70,56,30.44,30.39,30.35,,,,12,6,23,0.00,,,225
2013-1-9,48,38,28,41,34,25,93,75,59,30.40,30.26,30.11,,,,13,4,24,0.00,,,223
2013-1-10,46,42,39,34,29,24,65,56,44,30.55,30.40,30.18,,,,17,11,26,0.00,,,300
2013-1-11,46,38,32,44,32,24,93,74,57,30.53,30.40,30.17,,,,7,4,,0.13,,,77
2013-1-12,46,45,44,45,43,43,100,96,93,30.17,30.14,30.10,,,,10,7,16,0.06,,,58
2013-1-13,51,47,43,50,45,42,100,96,86,30.18,30.12,30.05,,,,8,1,,0.00,,,193
2013-1-14,52,48,39,51,43,30,100,84,58,30.26,30.10,29.98,,,,13,7,21,0.00,,,270
2013-1-15,41,39,37,33,30,27,86,71,62,30.32,30.27,30.22,,,,8,6,,0.16,,,357
2013-1-16,43,40,36,41,36,30,97,93,73,30.22,29.97,29.77,,,,9,7,18,0.68,,,3
2013-1-17,42,38,34,35,29,19,89,69,52,30.09,30.00,29.91,,,,12,8,20,0.01,,,285
2013-1-18,35,30,26,23,10,0,78,48,31,30.51,30.32,30.02,,,,17,10,28,0.03,,,315
2013-1-19,46,38,30,38,29,16,71,61,52,30.43,30.21,29.96,,,,20,11,34,0.00,,,218
2013-1-20,52,44,33,39,31,15,74,59,41,29.98,29.82,29.68,,,,16,13,29,0.00,,,239
2013-1-21,30,29,28,27,17,8,88,61,41,30.11,29.99,29.81,,,,14,8,21,0.12,,,306
2013-1-22,28,23,17,19,7,-1,69,51,42,30.13,29.95,29.78,,,,22,14,34,0.01,,,293
2013-1-23,18,15,12,0,-1,-4,54,46,40,30.20,30.16,30.12,,,,16,12,24,0.00,,,293
2013-1-24,21,16,12,3,0,-2,62,48,35,30.32,30.19,30.14,,,,21,15,32,0.00,,,309
2013-1-25,25,21,17,19,8,2,85,57,46,30.36,30.23,30.05,,,,18,13,29,0.06,,,289
2013-1-26,26,22,19,17,10,4,82,60,44,30.31,30.11,30.02,,,,18,11,29,0.00,,,321
2013-1-27,32,26,19,10,6,3,63,44,32,30.50,30.43,30.32,,,,20,14,29,0.00,,,303
2013-1-28,37,30,24,37,21,4,100,69,35,30.48,30.27,30.01,,,,7,4,,0.15,,,256
2013-1-29,39,37,35,37,33,32,96,88,79,30.19,30.12,30.01,,,,7,3,,0.00,,,23
2013-1-30,53,48,42,51,48,40,97,93,89,30.14,29.86,29.57,,,,17,7,26,0.07,,,172
2013-1-31,55,44,33,54,33,16,97,66,42,29.71,29.41,29.13,,,,22,16,40,0.63,,,232